»·PEaware :: N416JK KYKM-S31

N416JK :: KYKM-S31

FLIGHT INFORMATION

Flight Status: Arrived
Operator: Privately registered:
United States
More flights under this callsign
Pilot: John K. (4202)
Aircraft: PIPER PA-46-310/350P MALIBU MIRAGE
(PA46)
More flights by this aircraft type
Origin: KYKM Yakima Air Term/Mcallister
United States
Destination: S31 Lopez Island
United States
More flights between these airports :: More routes between these airports
Route: +WENAS7 TITON V4 DIGGN V165 CVV
File this flight plan on PilotEdge
Remarks:
Altitude:
(Current/Filed)
10,000ft
Speed:
(Current/Filed)
180kts
Departed: 17-May-20 10:27 AM
Arrived: 17-May-20 11:24 AM
Distance/Time
Traveled:
150nm/0:57
Distance/Time
To Go:
Arrived

Flight Plot

Page will automatically refresh every two minutes.


Map Options




Map Legend


Flown Route
Filed Route
Departure Airport
Arrival Airport
Navaid (VOR, NDB)
Fix

Horizontal Profiles

Position Reports

Time Latitude Longitude Heading Altitude Ground
Speed
17-May-20 10:02 46.569464 -120.538020 0 1099ft 0kts
17-May-20 10:03 46.569464 -120.538020 270 1099ft 0kts
17-May-20 10:04 46.569464 -120.538020 270 1099ft 0kts
17-May-20 10:05 46.569464 -120.538020 270 1099ft 0kts
17-May-20 10:06 46.569464 -120.538020 270 1099ft 0kts
17-May-20 10:07 46.569464 -120.538020 270 1099ft 0kts
17-May-20 10:08 46.569464 -120.538020 270 1099ft 0kts
17-May-20 10:09 46.569464 -120.538020 270 1099ft 0kts
17-May-20 10:10 46.569464 -120.538020 270 1099ft 0kts
17-May-20 10:11 46.569464 -120.538020 270 1099ft 0kts
17-May-20 10:12 46.569464 -120.538020 270 1099ft 0kts
17-May-20 10:13 46.569464 -120.538020 270 1099ft 0kts
17-May-20 10:14 46.569464 -120.538020 270 1099ft 0kts
17-May-20 10:15 46.569464 -120.538020 270 1099ft 0kts
17-May-20 10:15 46.569464 -120.538020 270 1099ft 0kts
17-May-20 10:17 46.569464 -120.538020 270 1099ft 0kts
17-May-20 10:18 46.569464 -120.538020 270 1099ft 0kts
17-May-20 10:18 46.569464 -120.538020 270 1099ft 0kts
17-May-20 10:19 46.569464 -120.538020 270 1099ft 0kts
17-May-20 10:21 46.570135 -120.535258 59 1099ft 11kts
17-May-20 10:21 46.570239 -120.534796 88 1099ft 0kts
17-May-20 10:22 46.570239 -120.534796 88 1099ft 0kts
17-May-20 10:23 46.570239 -120.534796 88 1099ft 0kts
17-May-20 10:24 46.570239 -120.534796 88 1099ft 0kts
17-May-20 10:25 46.569401 -120.534349 232 1099ft 20kts
17-May-20 10:26 46.563512 -120.562723 292 1968ft 83kts
17-May-20 10:27 46.572365 -120.587588 282 3143ft 81kts
17-May-20 10:28 46.575753 -120.617611 275 4371ft 77kts
17-May-20 10:29 46.580255 -120.650776 296 5543ft 89kts
17-May-20 10:30 46.603262 -120.659028 29 6665ft 108kts
17-May-20 10:31 46.627183 -120.640915 26 7838ft 117kts
17-May-20 10:32 46.658737 -120.633706 313 8968ft 134kts
17-May-20 10:33 46.682287 -120.679102 304 9976ft 155kts
17-May-20 10:34 46.707939 -120.732965 304 10004ft 187kts
17-May-20 10:35 46.736504 -120.793112 304 10000ft 195kts
17-May-20 10:36 46.765060 -120.853483 304 10000ft 197kts
17-May-20 10:37 46.794895 -120.916695 304 10000ft 197kts
17-May-20 10:38 46.823722 -120.977908 304 10000ft 198kts
17-May-20 10:39 46.853855 -121.042032 304 10000ft 198kts
17-May-20 10:40 46.884350 -121.107016 304 10000ft 198kts
17-May-20 10:41 46.915171 -121.172987 304 10000ft 198kts
17-May-20 10:42 46.945550 -121.238134 304 9977ft 199kts
17-May-20 10:43 46.975922 -121.303419 304 9963ft 198kts
17-May-20 10:44 47.006070 -121.368369 304 9963ft 198kts
17-May-20 10:45 47.036684 -121.434470 304 9963ft 198kts
17-May-20 10:46 47.067686 -121.501585 304 9964ft 206kts
17-May-20 10:47 47.099032 -121.569634 304 9963ft 209kts
17-May-20 10:48 47.130835 -121.638876 304 9963ft 209kts
17-May-20 10:49 47.162446 -121.707230 303 9963ft 209kts
17-May-20 10:50 47.194415 -121.776960 303 9963ft 209kts
17-May-20 10:51 47.226055 -121.846339 303 9962ft 208kts
17-May-20 10:52 47.257720 -121.915872 303 9963ft 209kts
17-May-20 10:53 47.289532 -121.985910 303 9963ft 209kts
17-May-20 10:54 47.320989 -122.055345 303 9963ft 209kts
17-May-20 10:55 47.350360 -122.120380 303 9963ft 209kts
17-May-20 10:56 47.381788 -122.190162 303 9963ft 209kts
17-May-20 10:57 47.413295 -122.260291 303 9963ft 209kts
17-May-20 10:58 47.449857 -122.322484 329 9963ft 209kts
17-May-20 10:59 47.498814 -122.365708 329 9963ft 209kts
17-May-20 11:00 47.547659 -122.408963 329 9963ft 209kts
17-May-20 11:01 47.596995 -122.452809 329 9963ft 209kts
17-May-20 11:02 47.645889 -122.496394 329 9963ft 209kts
17-May-20 11:03 47.694513 -122.539804 329 9963ft 209kts
17-May-20 11:04 47.743141 -122.583319 329 9963ft 209kts
17-May-20 11:05 47.792471 -122.627548 329 9963ft 209kts
17-May-20 11:06 47.841094 -122.670983 328 9963ft 209kts
17-May-20 11:07 47.890041 -122.714756 328 9963ft 209kts
17-May-20 11:08 47.938672 -122.758577 328 9963ft 209kts
17-May-20 11:09 47.994353 -122.759455 4 9963ft 209kts
17-May-20 11:10 48.051816 -122.751391 5 9963ft 209kts
17-May-20 11:11 48.108378 -122.743377 5 9963ft 209kts
17-May-20 11:12 48.164570 -122.735327 5 9961ft 204kts
17-May-20 11:13 48.218380 -122.727682 5 9892ft 196kts
17-May-20 11:14 48.271286 -122.720141 4 8485ft 189kts
17-May-20 11:15 48.321809 -122.725139 342 7103ft 183kts
17-May-20 11:16 48.352974 -122.764156 317 5668ft 126kts
17-May-20 11:17 48.376456 -122.795606 318 4335ft 122kts
17-May-20 11:18 48.400088 -122.827589 311 3828ft 111kts
17-May-20 11:19 48.417610 -122.870527 292 2772ft 141kts
17-May-20 11:20 48.428382 -122.920988 293 981ft 114kts
17-May-20 11:21 48.452932 -122.937038 357 794ft 113kts
17-May-20 11:22 48.480195 -122.936909 1 204ft 68kts
17-May-20 11:23 48.482513 -122.937510 197 204ft 0kts
17-May-20 11:24 48.482513 -122.937510 197 204ft 0kts
17-May-20 11:25 48.482513 -122.937510 197 204ft 0kts

Navigation Log

Ident Type
Flight plan parsing failed, navigation log unavailable